Memphis, MO

11:22 PM CST on February 06, 2016 (GMT -0600)
APRSWXNET | | Change Station
CLOSE
Current Station
Personal Weather Station
Location: Lancaster, MO
Elevation: 931 ft
Nearby Weather Stations

Elev 931 ft 40.52 °N, 92.52 °W | Updated 34 minutes ago

Clear
Clear
36 °F
Feels Like 36 °F
N
1
Wind Variable Wind from WSW
Gusts 0.0 mph

Today
High -- | Low -- °F
--% Chance of Precip.
Yesterday
High -- | Low -- °F
Precip. -- in
Pressure 30.10 in
Visibility 10.0 miles
Clouds Clear
Windchill 36 °F
Dew Point 31 °F
Humidity 81%
Rainfall in
Snow Depth Not available.
7:13 AM 5:32 PM
Waning Crescent, 3% visible
METAR KIRK 070455Z AUTO 22008KT 10SM CLR 03/M02 A3007 RMK AO2 SLP191 T00331022
Pressure 30.10 in
Visibility 10.0 miles
Clouds Clear
Windchill 36 °F
Dew Point 31 °F
Humidity 81%
Rainfall in
Snow Depth Not available.
7:13 AM 5:32 PM
Waning Crescent, 3% visible
METAR KIRK 070455Z AUTO 22008KT 10SM CLR 03/M02 A3007 RMK AO2 SLP191 T00331022

10-Day Weather Forecast

Almanac

Astronomy

Feb. 06, 2016 Rise Set
Actual Time
Civil Twilight
Nautical Twilight
Astronomical Twilight
Moon
Length of Visible Light
Length of Day
Tomorrow will be .
, % of the Moon is Illuminated

Today's Extremes

State Highs State Lows

Community

WunderPhotos

Upload Photos

1,891,163 photos uploaded!

WunderBlog® & News

Nearby

Air Quality

  Air Quality AQ Index Pollutant
Not available.

Snow Depth

Station Depth Elevation

Earthquake Activity

City Distance Mag. Time & Date
Minimum magnitude displayed is 2.5.

Coastal Water Temperatures

Place Temperature

Stations

Nearby Weather Stations

Station Location Temp. Windchill Dew Point Humidity Wind Precip. Elev Updated Type
                   

Watches & Warnings

There are currently no watches in effect.